sensor_id;sensor_type;location;lat;lon;timestamp;P1;durP1;ratioP1;P2;durP2;ratioP2
16963;SDS011;8598;50.508;10.436;2023-02-22T00:00:07;9.20;;;5.80;;
16963;SDS011;8598;50.508;10.436;2023-02-22T00:02:43;12.07;;;6.10;;
16963;SDS011;8598;50.508;10.436;2023-02-22T00:05:10;9.57;;;5.80;;
16963;SDS011;8598;50.508;10.436;2023-02-22T00:07:39;8.30;;;5.50;;
16963;SDS011;8598;50.508;10.436;2023-02-22T00:10:06;9.10;;;5.83;;
16963;SDS011;8598;50.508;10.436;2023-02-22T00:12:38;12.03;;;6.30;;
16963;SDS011;8598;50.508;10.436;2023-02-22T00:15:06;9.70;;;5.77;;
16963;SDS011;8598;50.508;10.436;2023-02-22T00:17:33;9.60;;;6.13;;
16963;SDS011;8598;50.508;10.436;2023-02-22T00:19:59;8.43;;;5.30;;
16963;SDS011;8598;50.508;10.436;2023-02-22T00:22:28;9.33;;;5.63;;
16963;SDS011;8598;50.508;10.436;2023-02-22T00:24:55;8.50;;;5.77;;
16963;SDS011;8598;50.508;10.436;2023-02-22T00:27:22;14.77;;;6.43;;
16963;SDS011;8598;50.508;10.436;2023-02-22T00:29:50;8.70;;;5.43;;
16963;SDS011;8598;50.508;10.436;2023-02-22T00:32:17;10.73;;;6.17;;
16963;SDS011;8598;50.508;10.436;2023-02-22T00:34:43;10.80;;;6.87;;
16963;SDS011;8598;50.508;10.436;2023-02-22T00:37:10;12.23;;;6.33;;
16963;SDS011;8598;50.508;10.436;2023-02-22T00:39:36;10.87;;;6.33;;
16963;SDS011;8598;50.508;10.436;2023-02-22T00:42:03;14.43;;;6.83;;
16963;SDS011;8598;50.508;10.436;2023-02-22T00:44:30;11.93;;;6.77;;
16963;SDS011;8598;50.508;10.436;2023-02-22T00:46:59;10.30;;;5.73;;
16963;SDS011;8598;50.508;10.436;2023-02-22T00:49:25;10.50;;;5.73;;
16963;SDS011;8598;50.508;10.436;2023-02-22T00:51:52;7.10;;;4.73;;
16963;SDS011;8598;50.508;10.436;2023-02-22T00:54:19;8.90;;;5.70;;
16963;SDS011;8598;50.508;10.436;2023-02-22T00:56:45;9.83;;;4.83;;
16963;SDS011;8598;50.508;10.436;2023-02-22T00:59:14;9.50;;;5.50;;
16963;SDS011;8598;50.508;10.436;2023-02-22T01:01:41;8.80;;;5.40;;
16963;SDS011;8598;50.508;10.436;2023-02-22T01:04:09;10.00;;;5.97;;
16963;SDS011;8598;50.508;10.436;2023-02-22T01:06:35;11.77;;;6.10;;
16963;SDS011;8598;50.508;10.436;2023-02-22T01:09:02;7.53;;;5.20;;
16963;SDS011;8598;50.508;10.436;2023-02-22T01:11:31;10.70;;;5.50;;
16963;SDS011;8598;50.508;10.436;2023-02-22T01:13:58;8.90;;;5.53;;
16963;SDS011;8598;50.508;10.436;2023-02-22T01:16:25;8.93;;;5.87;;
16963;SDS011;8598;50.508;10.436;2023-02-22T01:18:52;11.57;;;5.70;;
16963;SDS011;8598;50.508;10.436;2023-02-22T01:21:20;7.90;;;4.57;;
16963;SDS011;8598;50.508;10.436;2023-02-22T01:23:47;6.43;;;4.97;;
16963;SDS011;8598;50.508;10.436;2023-02-22T01:26:13;8.40;;;4.57;;
16963;SDS011;8598;50.508;10.436;2023-02-22T01:28:40;12.00;;;5.37;;
16963;SDS011;8598;50.508;10.436;2023-02-22T01:31:06;10.33;;;5.77;;
16963;SDS011;8598;50.508;10.436;2023-02-22T01:33:33;11.20;;;5.37;;
16963;SDS011;8598;50.508;10.436;2023-02-22T01:36:00;8.27;;;5.17;;
16963;SDS011;8598;50.508;10.436;2023-02-22T01:38:29;9.17;;;5.07;;
16963;SDS011;8598;50.508;10.436;2023-02-22T01:40:55;6.33;;;4.57;;
16963;SDS011;8598;50.508;10.436;2023-02-22T01:43:22;6.67;;;4.80;;
16963;SDS011;8598;50.508;10.436;2023-02-22T01:45:54;5.77;;;4.50;;
16963;SDS011;8598;50.508;10.436;2023-02-22T01:48:25;7.73;;;4.43;;
16963;SDS011;8598;50.508;10.436;2023-02-22T01:50:57;4.30;;;3.90;;
16963;SDS011;8598;50.508;10.436;2023-02-22T01:53:27;7.00;;;4.67;;
16963;SDS011;8598;50.508;10.436;2023-02-22T01:55:58;6.50;;;4.90;;
16963;SDS011;8598;50.508;10.436;2023-02-22T01:58:26;10.03;;;5.77;;
16963;SDS011;8598;50.508;10.436;2023-02-22T02:00:55;8.83;;;5.10;;
16963;SDS011;8598;50.508;10.436;2023-02-22T02:03:22;8.80;;;5.03;;
16963;SDS011;8598;50.508;10.436;2023-02-22T02:05:53;8.97;;;5.03;;
16963;SDS011;8598;50.508;10.436;2023-02-22T02:08:24;7.70;;;4.70;;
16963;SDS011;8598;50.508;10.436;2023-02-22T02:10:59;7.13;;;4.77;;
16963;SDS011;8598;50.508;10.436;2023-02-22T02:13:27;8.40;;;5.47;;
16963;SDS011;8598;50.508;10.436;2023-02-22T02:15:54;7.30;;;4.53;;
16963;SDS011;8598;50.508;10.436;2023-02-22T02:18:21;8.40;;;4.77;;
16963;SDS011;8598;50.508;10.436;2023-02-22T02:20:53;7.83;;;5.60;;
16963;SDS011;8598;50.508;10.436;2023-02-22T02:23:49;9.73;;;5.40;;
16963;SDS011;8598;50.508;10.436;2023-02-22T02:29:51;7.63;;;5.53;;
16963;SDS011;8598;50.508;10.436;2023-02-22T02:32:51;8.77;;;5.30;;
16963;SDS011;8598;50.508;10.436;2023-02-22T02:35:23;7.93;;;5.80;;
16963;SDS011;8598;50.508;10.436;2023-02-22T02:37:56;10.07;;;5.80;;
16963;SDS011;8598;50.508;10.436;2023-02-22T02:40:29;16.23;;;6.30;;
16963;SDS011;8598;50.508;10.436;2023-02-22T02:43:03;24.77;;;7.20;;
16963;SDS011;8598;50.508;10.436;2023-02-22T02:45:38;36.53;;;7.37;;
16963;SDS011;8598;50.508;10.436;2023-02-22T02:48:10;30.30;;;6.77;;
16963;SDS011;8598;50.508;10.436;2023-02-22T02:50:41;36.13;;;6.80;;
16963;SDS011;8598;50.508;10.436;2023-02-22T02:53:10;63.93;;;8.07;;
16963;SDS011;8598;50.508;10.436;2023-02-22T02:55:38;51.07;;;9.00;;
16963;SDS011;8598;50.508;10.436;2023-02-22T02:58:05;34.57;;;6.93;;
16963;SDS011;8598;50.508;10.436;2023-02-22T03:00:34;93.27;;;8.63;;
16963;SDS011;8598;50.508;10.436;2023-02-22T03:03:08;90.00;;;9.13;;
16963;SDS011;8598;50.508;10.436;2023-02-22T03:05:56;48.90;;;8.17;;
16963;SDS011;8598;50.508;10.436;2023-02-22T03:08:38;71.33;;;8.77;;
16963;SDS011;8598;50.508;10.436;2023-02-22T03:11:09;105.97;;;10.03;;
16963;SDS011;8598;50.508;10.436;2023-02-22T03:13:41;44.03;;;7.43;;
16963;SDS011;8598;50.508;10.436;2023-02-22T03:16:18;103.27;;;9.87;;
16963;SDS011;8598;50.508;10.436;2023-02-22T03:18:52;140.60;;;11.00;;
16963;SDS011;8598;50.508;10.436;2023-02-22T03:21:25;266.20;;;15.70;;
16963;SDS011;8598;50.508;10.436;2023-02-22T03:24:00;156.53;;;11.87;;
16963;SDS011;8598;50.508;10.436;2023-02-22T03:26:33;245.50;;;15.67;;
16963;SDS011;8598;50.508;10.436;2023-02-22T03:29:03;249.17;;;14.83;;
16963;SDS011;8598;50.508;10.436;2023-02-22T03:31:34;101.10;;;11.90;;
16963;SDS011;8598;50.508;10.436;2023-02-22T03:34:07;210.60;;;14.20;;
16963;SDS011;8598;50.508;10.436;2023-02-22T03:36:38;101.17;;;10.33;;
16963;SDS011;8598;50.508;10.436;2023-02-22T03:39:08;134.63;;;11.27;;
16963;SDS011;8598;50.508;10.436;2023-02-22T03:41:40;100.63;;;10.60;;
16963;SDS011;8598;50.508;10.436;2023-02-22T03:44:13;78.03;;;9.67;;
16963;SDS011;8598;50.508;10.436;2023-02-22T03:46:43;16.43;;;6.87;;
16963;SDS011;8598;50.508;10.436;2023-02-22T03:49:16;50.77;;;9.10;;
16963;SDS011;8598;50.508;10.436;2023-02-22T03:51:49;100.93;;;10.77;;
16963;SDS011;8598;50.508;10.436;2023-02-22T03:54:17;61.73;;;9.57;;
16963;SDS011;8598;50.508;10.436;2023-02-22T03:56:46;69.53;;;8.17;;
16963;SDS011;8598;50.508;10.436;2023-02-22T03:59:14;29.33;;;8.20;;
16963;SDS011;8598;50.508;10.436;2023-02-22T04:01:42;32.83;;;8.10;;
16963;SDS011;8598;50.508;10.436;2023-02-22T04:04:08;36.13;;;8.53;;
16963;SDS011;8598;50.508;10.436;2023-02-22T04:06:36;97.37;;;9.87;;
16963;SDS011;8598;50.508;10.436;2023-02-22T04:09:03;67.20;;;9.20;;
16963;SDS011;8598;50.508;10.436;2023-02-22T04:11:32;63.33;;;9.13;;
16963;SDS011;8598;50.508;10.436;2023-02-22T04:13:59;88.70;;;9.10;;
16963;SDS011;8598;50.508;10.436;2023-02-22T04:16:25;48.63;;;8.67;;
16963;SDS011;8598;50.508;10.436;2023-02-22T04:18:52;50.67;;;8.80;;
16963;SDS011;8598;50.508;10.436;2023-02-22T04:21:18;29.67;;;7.73;;
16963;SDS011;8598;50.508;10.436;2023-02-22T04:23:46;95.43;;;10.17;;
16963;SDS011;8598;50.508;10.436;2023-02-22T04:26:13;37.10;;;8.07;;
16963;SDS011;8598;50.508;10.436;2023-02-22T04:28:40;37.40;;;8.27;;
16963;SDS011;8598;50.508;10.436;2023-02-22T04:31:06;73.33;;;8.00;;
16963;SDS011;8598;50.508;10.436;2023-02-22T04:33:33;35.87;;;7.70;;
16963;SDS011;8598;50.508;10.436;2023-02-22T04:36:00;46.90;;;9.07;;
16963;SDS011;8598;50.508;10.436;2023-02-22T04:38:26;31.03;;;7.77;;
16963;SDS011;8598;50.508;10.436;2023-02-22T04:40:54;80.67;;;9.43;;
16963;SDS011;8598;50.508;10.436;2023-02-22T04:43:21;62.70;;;8.17;;
16963;SDS011;8598;50.508;10.436;2023-02-22T04:45:49;35.90;;;8.83;;
16963;SDS011;8598;50.508;10.436;2023-02-22T04:48:16;68.50;;;8.90;;
16963;SDS011;8598;50.508;10.436;2023-02-22T04:50:42;74.43;;;8.50;;
16963;SDS011;8598;50.508;10.436;2023-02-22T04:53:09;44.47;;;8.00;;
16963;SDS011;8598;50.508;10.436;2023-02-22T04:55:36;54.53;;;7.83;;
16963;SDS011;8598;50.508;10.436;2023-02-22T04:58:04;37.80;;;8.10;;
16963;SDS011;8598;50.508;10.436;2023-02-22T05:00:30;65.67;;;8.30;;
16963;SDS011;8598;50.508;10.436;2023-02-22T05:02:57;40.53;;;8.43;;
16963;SDS011;8598;50.508;10.436;2023-02-22T05:05:24;94.07;;;9.30;;
16963;SDS011;8598;50.508;10.436;2023-02-22T05:07:50;57.23;;;8.77;;
16963;SDS011;8598;50.508;10.436;2023-02-22T05:10:17;62.27;;;9.70;;
16963;SDS011;8598;50.508;10.436;2023-02-22T05:12:44;33.80;;;8.57;;
16963;SDS011;8598;50.508;10.436;2023-02-22T05:15:16;48.37;;;8.87;;
16963;SDS011;8598;50.508;10.436;2023-02-22T05:17:45;43.70;;;8.30;;
16963;SDS011;8598;50.508;10.436;2023-02-22T05:20:15;68.27;;;9.30;;
16963;SDS011;8598;50.508;10.436;2023-02-22T05:22:46;81.83;;;10.70;;
16963;SDS011;8598;50.508;10.436;2023-02-22T05:25:13;43.13;;;8.83;;
16963;SDS011;8598;50.508;10.436;2023-02-22T05:27:40;59.97;;;10.67;;
16963;SDS011;8598;50.508;10.436;2023-02-22T05:30:07;75.67;;;10.07;;
16963;SDS011;8598;50.508;10.436;2023-02-22T05:32:37;30.93;;;8.87;;
16963;SDS011;8598;50.508;10.436;2023-02-22T05:35:04;15.50;;;7.13;;
16963;SDS011;8598;50.508;10.436;2023-02-22T05:37:32;131.00;;;12.37;;
16963;SDS011;8598;50.508;10.436;2023-02-22T05:39:59;83.00;;;10.47;;
16963;SDS011;8598;50.508;10.436;2023-02-22T05:42:26;105.67;;;9.90;;
16963;SDS011;8598;50.508;10.436;2023-02-22T05:44:52;102.87;;;9.53;;
16963;SDS011;8598;50.508;10.436;2023-02-22T05:47:19;100.30;;;10.60;;
16963;SDS011;8598;50.508;10.436;2023-02-22T05:49:47;66.00;;;9.37;;
16963;SDS011;8598;50.508;10.436;2023-02-22T05:52:13;76.17;;;10.10;;
16963;SDS011;8598;50.508;10.436;2023-02-22T05:54:40;89.10;;;10.43;;
16963;SDS011;8598;50.508;10.436;2023-02-22T05:57:07;73.57;;;9.40;;
16963;SDS011;8598;50.508;10.436;2023-02-22T05:59:33;66.10;;;8.53;;
16963;SDS011;8598;50.508;10.436;2023-02-22T06:02:00;93.57;;;9.33;;
16963;SDS011;8598;50.508;10.436;2023-02-22T06:04:26;98.57;;;9.90;;
16963;SDS011;8598;50.508;10.436;2023-02-22T06:06:54;59.10;;;8.27;;
16963;SDS011;8598;50.508;10.436;2023-02-22T06:09:21;26.20;;;8.43;;
16963;SDS011;8598;50.508;10.436;2023-02-22T06:11:48;165.53;;;11.57;;
16963;SDS011;8598;50.508;10.436;2023-02-22T06:14:14;71.33;;;8.53;;
16963;SDS011;8598;50.508;10.436;2023-02-22T06:16:41;26.27;;;6.57;;
16963;SDS011;8598;50.508;10.436;2023-02-22T06:19:07;101.70;;;10.00;;
16963;SDS011;8598;50.508;10.436;2023-02-22T06:21:34;16.00;;;6.70;;
16963;SDS011;8598;50.508;10.436;2023-02-22T06:24:02;61.77;;;7.67;;
16963;SDS011;8598;50.508;10.436;2023-02-22T06:26:29;63.87;;;8.00;;
16963;SDS011;8598;50.508;10.436;2023-02-22T06:28:55;22.83;;;6.13;;
16963;SDS011;8598;50.508;10.436;2023-02-22T06:31:22;35.77;;;6.37;;
16963;SDS011;8598;50.508;10.436;2023-02-22T06:33:48;72.40;;;7.50;;
16963;SDS011;8598;50.508;10.436;2023-02-22T06:36:15;8.63;;;5.20;;
16963;SDS011;8598;50.508;10.436;2023-02-22T06:38:42;8.37;;;5.43;;
16963;SDS011;8598;50.508;10.436;2023-02-22T06:41:10;50.57;;;6.60;;
16963;SDS011;8598;50.508;10.436;2023-02-22T06:43:36;99.03;;;9.37;;
16963;SDS011;8598;50.508;10.436;2023-02-22T06:46:03;32.77;;;6.53;;
16963;SDS011;8598;50.508;10.436;2023-02-22T06:48:30;50.33;;;7.20;;
16963;SDS011;8598;50.508;10.436;2023-02-22T06:50:56;13.90;;;6.20;;
16963;SDS011;8598;50.508;10.436;2023-02-22T06:53:23;34.90;;;6.40;;
16963;SDS011;8598;50.508;10.436;2023-02-22T06:55:51;22.77;;;8.07;;
16963;SDS011;8598;50.508;10.436;2023-02-22T06:58:20;30.70;;;6.73;;
16963;SDS011;8598;50.508;10.436;2023-02-22T07:00:46;55.23;;;7.57;;
16963;SDS011;8598;50.508;10.436;2023-02-22T07:03:13;9.77;;;6.00;;
16963;SDS011;8598;50.508;10.436;2023-02-22T07:05:40;20.13;;;5.83;;
16963;SDS011;8598;50.508;10.436;2023-02-22T07:08:07;11.40;;;5.20;;
16963;SDS011;8598;50.508;10.436;2023-02-22T07:10:34;6.30;;;4.47;;
16963;SDS011;8598;50.508;10.436;2023-02-22T07:13:02;29.03;;;5.57;;
16963;SDS011;8598;50.508;10.436;2023-02-22T07:15:31;17.37;;;5.30;;
16963;SDS011;8598;50.508;10.436;2023-02-22T07:17:59;10.93;;;4.53;;
16963;SDS011;8598;50.508;10.436;2023-02-22T07:20:27;8.67;;;4.60;;
16963;SDS011;8598;50.508;10.436;2023-02-22T07:22:55;7.40;;;4.83;;
16963;SDS011;8598;50.508;10.436;2023-02-22T07:25:22;4.77;;;4.10;;
16963;SDS011;8598;50.508;10.436;2023-02-22T07:27:49;17.83;;;4.77;;
16963;SDS011;8598;50.508;10.436;2023-02-22T07:30:17;14.20;;;4.53;;
16963;SDS011;8598;50.508;10.436;2023-02-22T07:32:50;17.43;;;4.67;;
16963;SDS011;8598;50.508;10.436;2023-02-22T07:35:18;15.57;;;4.43;;
16963;SDS011;8598;50.508;10.436;2023-02-22T07:37:47;23.90;;;4.77;;
16963;SDS011;8598;50.508;10.436;2023-02-22T07:40:14;40.47;;;4.70;;
16963;SDS011;8598;50.508;10.436;2023-02-22T07:42:49;15.60;;;4.47;;
16963;SDS011;8598;50.508;10.436;2023-02-22T07:45:16;13.60;;;4.23;;
16963;SDS011;8598;50.508;10.436;2023-02-22T07:47:44;40.90;;;4.57;;
16963;SDS011;8598;50.508;10.436;2023-02-22T07:50:13;56.73;;;4.73;;
16963;SDS011;8598;50.508;10.436;2023-02-22T07:52:39;37.07;;;5.43;;
16963;SDS011;8598;50.508;10.436;2023-02-22T07:55:10;29.53;;;4.83;;
16963;SDS011;8598;50.508;10.436;2023-02-22T07:57:38;27.20;;;5.20;;
16963;SDS011;8598;50.508;10.436;2023-02-22T08:00:05;47.70;;;4.83;;
16963;SDS011;8598;50.508;10.436;2023-02-22T08:02:32;34.07;;;5.13;;
16963;SDS011;8598;50.508;10.436;2023-02-22T08:04:59;101.00;;;7.70;;
16963;SDS011;8598;50.508;10.436;2023-02-22T08:07:27;43.73;;;5.33;;
16963;SDS011;8598;50.508;10.436;2023-02-22T08:09:53;37.57;;;5.47;;
16963;SDS011;8598;50.508;10.436;2023-02-22T08:12:20;73.40;;;6.63;;
16963;SDS011;8598;50.508;10.436;2023-02-22T08:14:46;64.77;;;6.03;;
16963;SDS011;8598;50.508;10.436;2023-02-22T08:17:13;69.50;;;6.70;;
16963;SDS011;8598;50.508;10.436;2023-02-22T08:19:39;127.47;;;8.17;;
16963;SDS011;8598;50.508;10.436;2023-02-22T08:22:06;124.73;;;8.17;;
16963;SDS011;8598;50.508;10.436;2023-02-22T08:24:34;17.33;;;5.17;;
16963;SDS011;8598;50.508;10.436;2023-02-22T08:27:01;6.73;;;4.17;;
16963;SDS011;8598;50.508;10.436;2023-02-22T08:29:27;62.37;;;6.03;;
16963;SDS011;8598;50.508;10.436;2023-02-22T08:31:57;54.90;;;5.27;;
16963;SDS011;8598;50.508;10.436;2023-02-22T08:34:24;46.47;;;5.87;;
16963;SDS011;8598;50.508;10.436;2023-02-22T08:36:51;98.57;;;6.30;;
16963;SDS011;8598;50.508;10.436;2023-02-22T08:39:17;65.77;;;5.83;;
16963;SDS011;8598;50.508;10.436;2023-02-22T08:41:45;67.87;;;5.73;;
16963;SDS011;8598;50.508;10.436;2023-02-22T08:44:12;56.57;;;5.57;;
16963;SDS011;8598;50.508;10.436;2023-02-22T08:46:38;48.87;;;4.63;;
16963;SDS011;8598;50.508;10.436;2023-02-22T08:49:05;83.63;;;5.57;;
16963;SDS011;8598;50.508;10.436;2023-02-22T08:51:33;137.83;;;7.30;;
16963;SDS011;8598;50.508;10.436;2023-02-22T08:54:00;31.73;;;5.43;;
16963;SDS011;8598;50.508;10.436;2023-02-22T08:56:27;36.60;;;6.13;;
16963;SDS011;8598;50.508;10.436;2023-02-22T08:58:55;98.17;;;7.33;;
16963;SDS011;8598;50.508;10.436;2023-02-22T09:01:22;40.97;;;5.00;;
16963;SDS011;8598;50.508;10.436;2023-02-22T09:03:53;39.47;;;4.70;;
16963;SDS011;8598;50.508;10.436;2023-02-22T09:06:20;49.57;;;4.73;;
16963;SDS011;8598;50.508;10.436;2023-02-22T09:08:47;81.13;;;5.33;;
16963;SDS011;8598;50.508;10.436;2023-02-22T09:11:13;51.83;;;5.00;;
16963;SDS011;8598;50.508;10.436;2023-02-22T09:13:40;33.90;;;4.63;;
16963;SDS011;8598;50.508;10.436;2023-02-22T09:16:08;81.73;;;6.43;;
16963;SDS011;8598;50.508;10.436;2023-02-22T09:18:34;21.47;;;4.47;;
16963;SDS011;8598;50.508;10.436;2023-02-22T09:21:01;33.97;;;4.80;;
16963;SDS011;8598;50.508;10.436;2023-02-22T09:23:28;10.77;;;4.07;;
16963;SDS011;8598;50.508;10.436;2023-02-22T09:25:55;5.70;;;4.30;;
16963;SDS011;8598;50.508;10.436;2023-02-22T09:28:24;7.83;;;4.73;;
16963;SDS011;8598;50.508;10.436;2023-02-22T09:30:51;5.60;;;4.93;;
16963;SDS011;8598;50.508;10.436;2023-02-22T09:33:19;6.90;;;4.27;;
16963;SDS011;8598;50.508;10.436;2023-02-22T09:35:47;5.17;;;3.80;;
16963;SDS011;8598;50.508;10.436;2023-02-22T09:38:16;5.33;;;3.60;;
16963;SDS011;8598;50.508;10.436;2023-02-22T09:40:48;6.83;;;4.57;;
16963;SDS011;8598;50.508;10.436;2023-02-22T09:43:20;8.80;;;6.53;;
16963;SDS011;8598;50.508;10.436;2023-02-22T09:46:00;11.53;;;7.40;;
16963;SDS011;8598;50.508;10.436;2023-02-22T09:48:39;12.53;;;8.67;;
16963;SDS011;8598;50.508;10.436;2023-02-22T09:51:28;10.87;;;8.00;;
16963;SDS011;8598;50.508;10.436;2023-02-22T09:53:59;11.37;;;8.27;;
16963;SDS011;8598;50.508;10.436;2023-02-22T09:56:29;12.47;;;10.10;;
16963;SDS011;8598;50.508;10.436;2023-02-22T09:58:59;12.10;;;7.40;;
16963;SDS011;8598;50.508;10.436;2023-02-22T10:01:28;10.93;;;8.13;;
16963;SDS011;8598;50.508;10.436;2023-02-22T10:03:59;13.53;;;10.37;;
16963;SDS011;8598;50.508;10.436;2023-02-22T10:06:30;12.43;;;9.33;;
16963;SDS011;8598;50.508;10.436;2023-02-22T10:08:59;10.57;;;7.83;;
16963;SDS011;8598;50.508;10.436;2023-02-22T10:11:39;10.43;;;8.07;;
16963;SDS011;8598;50.508;10.436;2023-02-22T10:14:22;12.10;;;6.80;;
16963;SDS011;8598;50.508;10.436;2023-02-22T10:17:01;15.07;;;9.13;;
16963;SDS011;8598;50.508;10.436;2023-02-22T10:19:36;13.13;;;9.10;;
16963;SDS011;8598;50.508;10.436;2023-02-22T10:22:15;12.67;;;9.47;;
16963;SDS011;8598;50.508;10.436;2023-02-22T10:24:55;11.23;;;7.83;;
16963;SDS011;8598;50.508;10.436;2023-02-22T10:27:27;12.63;;;8.30;;
16963;SDS011;8598;50.508;10.436;2023-02-22T10:29:58;11.77;;;8.47;;
16963;SDS011;8598;50.508;10.436;2023-02-22T10:32:31;9.17;;;6.27;;
16963;SDS011;8598;50.508;10.436;2023-02-22T10:35:12;7.43;;;5.17;;
16963;SDS011;8598;50.508;10.436;2023-02-22T10:37:44;8.47;;;6.33;;
16963;SDS011;8598;50.508;10.436;2023-02-22T10:40:14;6.77;;;4.73;;
16963;SDS011;8598;50.508;10.436;2023-02-22T10:42:44;6.30;;;5.30;;
16963;SDS011;8598;50.508;10.436;2023-02-22T10:45:18;6.83;;;6.17;;
16963;SDS011;8598;50.508;10.436;2023-02-22T10:47:48;7.63;;;4.83;;
16963;SDS011;8598;50.508;10.436;2023-02-22T10:50:17;11.47;;;7.20;;
16963;SDS011;8598;50.508;10.436;2023-02-22T10:52:45;8.97;;;6.57;;
16963;SDS011;8598;50.508;10.436;2023-02-22T10:55:13;9.33;;;5.70;;
16963;SDS011;8598;50.508;10.436;2023-02-22T10:57:42;6.27;;;5.03;;
16963;SDS011;8598;50.508;10.436;2023-02-22T11:00:15;9.20;;;7.60;;
16963;SDS011;8598;50.508;10.436;2023-02-22T11:02:48;9.70;;;7.83;;
16963;SDS011;8598;50.508;10.436;2023-02-22T11:05:26;10.20;;;9.03;;
16963;SDS011;8598;50.508;10.436;2023-02-22T11:10:52;7.77;;;6.03;;
16963;SDS011;8598;50.508;10.436;2023-02-22T11:13:24;9.53;;;8.53;;
16963;SDS011;8598;50.508;10.436;2023-02-22T11:15:53;8.33;;;6.43;;
16963;SDS011;8598;50.508;10.436;2023-02-22T11:18:21;11.50;;;7.10;;
16963;SDS011;8598;50.508;10.436;2023-02-22T11:20:59;9.07;;;6.90;;
16963;SDS011;8598;50.508;10.436;2023-02-22T11:23:27;9.90;;;6.80;;
16963;SDS011;8598;50.508;10.436;2023-02-22T11:25:59;9.87;;;7.87;;
16963;SDS011;8598;50.508;10.436;2023-02-22T11:28:29;16.83;;;10.80;;
16963;SDS011;8598;50.508;10.436;2023-02-22T11:30:57;13.57;;;8.33;;
16963;SDS011;8598;50.508;10.436;2023-02-22T11:33:33;12.23;;;9.10;;
16963;SDS011;8598;50.508;10.436;2023-02-22T11:36:03;15.20;;;10.77;;
16963;SDS011;8598;50.508;10.436;2023-02-22T11:38:33;11.23;;;9.20;;
16963;SDS011;8598;50.508;10.436;2023-02-22T11:41:12;11.00;;;7.63;;
16963;SDS011;8598;50.508;10.436;2023-02-22T11:43:40;9.47;;;7.73;;
16963;SDS011;8598;50.508;10.436;2023-02-22T11:46:08;11.40;;;7.30;;
16963;SDS011;8598;50.508;10.436;2023-02-22T11:48:38;10.00;;;8.27;;
16963;SDS011;8598;50.508;10.436;2023-02-22T11:51:14;8.83;;;7.40;;
16963;SDS011;8598;50.508;10.436;2023-02-22T11:53:49;9.60;;;7.70;;
16963;SDS011;8598;50.508;10.436;2023-02-22T11:56:28;14.13;;;9.33;;
16963;SDS011;8598;50.508;10.436;2023-02-22T11:59:05;10.83;;;8.63;;
16963;SDS011;8598;50.508;10.436;2023-02-22T12:01:42;10.53;;;7.20;;
16963;SDS011;8598;50.508;10.436;2023-02-22T12:04:38;11.47;;;7.00;;
16963;SDS011;8598;50.508;10.436;2023-02-22T12:07:27;8.87;;;6.87;;
16963;SDS011;8598;50.508;10.436;2023-02-22T12:10:05;8.67;;;6.97;;
16963;SDS011;8598;50.508;10.436;2023-02-22T12:12:41;10.43;;;6.80;;
16963;SDS011;8598;50.508;10.436;2023-02-22T12:15:18;10.03;;;7.60;;
16963;SDS011;8598;50.508;10.436;2023-02-22T12:17:54;9.50;;;7.13;;
16963;SDS011;8598;50.508;10.436;2023-02-22T12:20:26;9.33;;;7.50;;
16963;SDS011;8598;50.508;10.436;2023-02-22T12:23:02;10.73;;;7.10;;
16963;SDS011;8598;50.508;10.436;2023-02-22T12:25:35;10.90;;;8.30;;
16963;SDS011;8598;50.508;10.436;2023-02-22T12:28:10;10.30;;;7.23;;
16963;SDS011;8598;50.508;10.436;2023-02-22T12:30:44;10.37;;;7.27;;
16963;SDS011;8598;50.508;10.436;2023-02-22T12:33:18;10.93;;;7.93;;
16963;SDS011;8598;50.508;10.436;2023-02-22T12:35:51;9.07;;;6.47;;
16963;SDS011;8598;50.508;10.436;2023-02-22T12:38:23;8.03;;;6.87;;
16963;SDS011;8598;50.508;10.436;2023-02-22T12:40:57;9.03;;;6.50;;
16963;SDS011;8598;50.508;10.436;2023-02-22T12:43:28;8.93;;;6.97;;
16963;SDS011;8598;50.508;10.436;2023-02-22T12:46:01;9.33;;;6.90;;
16963;SDS011;8598;50.508;10.436;2023-02-22T12:48:34;7.00;;;6.07;;
16963;SDS011;8598;50.508;10.436;2023-02-22T12:51:14;8.17;;;6.63;;
16963;SDS011;8598;50.508;10.436;2023-02-22T12:53:53;7.17;;;5.97;;
16963;SDS011;8598;50.508;10.436;2023-02-22T12:56:27;7.87;;;6.50;;
16963;SDS011;8598;50.508;10.436;2023-02-22T12:58:59;10.97;;;7.40;;
16963;SDS011;8598;50.508;10.436;2023-02-22T13:01:33;7.93;;;6.27;;
16963;SDS011;8598;50.508;10.436;2023-02-22T13:04:03;7.67;;;6.50;;
16963;SDS011;8598;50.508;10.436;2023-02-22T13:06:39;11.23;;;7.77;;
16963;SDS011;8598;50.508;10.436;2023-02-22T13:09:31;8.43;;;5.40;;
16963;SDS011;8598;50.508;10.436;2023-02-22T13:12:08;10.80;;;6.20;;
16963;SDS011;8598;50.508;10.436;2023-02-22T13:14:43;11.27;;;6.03;;
16963;SDS011;8598;50.508;10.436;2023-02-22T13:17:20;7.93;;;6.33;;
16963;SDS011;8598;50.508;10.436;2023-02-22T13:19:56;10.93;;;5.57;;
16963;SDS011;8598;50.508;10.436;2023-02-22T13:22:31;12.70;;;6.67;;
16963;SDS011;8598;50.508;10.436;2023-02-22T13:25:05;10.27;;;6.97;;
16963;SDS011;8598;50.508;10.436;2023-02-22T13:27:37;9.87;;;6.77;;
16963;SDS011;8598;50.508;10.436;2023-02-22T13:30:13;12.13;;;6.00;;
16963;SDS011;8598;50.508;10.436;2023-02-22T13:32:49;9.33;;;6.50;;
16963;SDS011;8598;50.508;10.436;2023-02-22T13:35:28;8.63;;;5.70;;
16963;SDS011;8598;50.508;10.436;2023-02-22T13:38:19;11.60;;;7.20;;
16963;SDS011;8598;50.508;10.436;2023-02-22T13:41:10;13.73;;;6.63;;
16963;SDS011;8598;50.508;10.436;2023-02-22T13:44:00;9.70;;;7.30;;
16963;SDS011;8598;50.508;10.436;2023-02-22T13:47:00;9.13;;;6.13;;
16963;SDS011;8598;50.508;10.436;2023-02-22T13:49:40;11.70;;;7.13;;
16963;SDS011;8598;50.508;10.436;2023-02-22T13:52:19;8.90;;;6.37;;
16963;SDS011;8598;50.508;10.436;2023-02-22T13:54:50;11.40;;;5.63;;
16963;SDS011;8598;50.508;10.436;2023-02-22T13:57:21;9.07;;;5.63;;
16963;SDS011;8598;50.508;10.436;2023-02-22T14:02:57;8.60;;;6.67;;
16963;SDS011;8598;50.508;10.436;2023-02-22T14:05:45;7.80;;;5.63;;
16963;SDS011;8598;50.508;10.436;2023-02-22T14:14:22;9.43;;;6.13;;
16963;SDS011;8598;50.508;10.436;2023-02-22T14:19:59;8.43;;;6.07;;
16963;SDS011;8598;50.508;10.436;2023-02-22T14:22:54;13.27;;;10.50;;
16963;SDS011;8598;50.508;10.436;2023-02-22T14:25:28;15.70;;;11.87;;
16963;SDS011;8598;50.508;10.436;2023-02-22T14:27:57;8.73;;;7.20;;
16963;SDS011;8598;50.508;10.436;2023-02-22T14:30:26;8.30;;;7.17;;
16963;SDS011;8598;50.508;10.436;2023-02-22T14:32:54;10.13;;;7.90;;
16963;SDS011;8598;50.508;10.436;2023-02-22T14:35:21;15.40;;;11.00;;
16963;SDS011;8598;50.508;10.436;2023-02-22T14:37:50;12.13;;;9.60;;
16963;SDS011;8598;50.508;10.436;2023-02-22T14:40:20;13.33;;;9.63;;
16963;SDS011;8598;50.508;10.436;2023-02-22T14:42:51;12.07;;;9.47;;
16963;SDS011;8598;50.508;10.436;2023-02-22T14:45:28;9.87;;;7.90;;
16963;SDS011;8598;50.508;10.436;2023-02-22T14:47:59;9.53;;;7.50;;
16963;SDS011;8598;50.508;10.436;2023-02-22T14:50:36;8.67;;;6.27;;
16963;SDS011;8598;50.508;10.436;2023-02-22T14:53:13;9.87;;;7.53;;
16963;SDS011;8598;50.508;10.436;2023-02-22T14:55:48;7.13;;;5.53;;
16963;SDS011;8598;50.508;10.436;2023-02-22T14:58:18;9.50;;;6.70;;
16963;SDS011;8598;50.508;10.436;2023-02-22T15:00:49;9.00;;;6.47;;
16963;SDS011;8598;50.508;10.436;2023-02-22T15:03:24;9.37;;;7.90;;
16963;SDS011;8598;50.508;10.436;2023-02-22T15:05:56;10.20;;;7.37;;
16963;SDS011;8598;50.508;10.436;2023-02-22T15:08:29;9.23;;;6.40;;
16963;SDS011;8598;50.508;10.436;2023-02-22T15:10:58;8.80;;;6.77;;
16963;SDS011;8598;50.508;10.436;2023-02-22T15:13:27;8.80;;;5.90;;
16963;SDS011;8598;50.508;10.436;2023-02-22T15:15:58;8.23;;;6.30;;